createdAt,value
2023-02-11T00:01:28.971Z,41.03
2023-02-11T00:03:31.662Z,40.88
2023-02-11T00:05:34.867Z,39.35
2023-02-11T00:07:37.848Z,34.83
2023-02-11T00:09:40.599Z,34.88
2023-02-11T00:11:43.108Z,41.05
2023-02-11T00:13:46.479Z,40.17
2023-02-11T00:15:49.607Z,37.20
2023-02-11T00:17:52.297Z,41.22
2023-02-11T00:19:55.105Z,37.22
2023-02-11T00:21:57.635Z,36.78
2023-02-11T00:24:02.807Z,39.10
2023-02-11T00:26:12.721Z,38.65
2023-02-11T00:28:15.902Z,38.47
2023-02-11T00:30:18.198Z,37.55
2023-02-11T00:32:20.647Z,41.80
2023-02-11T00:34:23.757Z,41.53
2023-02-11T00:36:28.531Z,42.95
2023-02-11T00:38:30.866Z,38.85
2023-02-11T00:40:33.297Z,42.85
2023-02-11T00:42:39.062Z,40.97
2023-02-11T00:44:41.885Z,39.30
2023-02-11T00:46:45.084Z,29.42
2023-02-11T00:48:47.826Z,40.88
2023-02-11T00:50:50.871Z,37.45
2023-02-11T00:52:53.378Z,33.80
2023-02-11T00:54:56.047Z,33.83
2023-02-11T00:56:58.657Z,35.45
2023-02-11T00:59:00.865Z,36.65
2023-02-11T01:01:03.414Z,38.28
2023-02-11T01:03:05.848Z,36.22
2023-02-11T01:05:08.688Z,36.10
2023-02-11T01:07:11.220Z,35.38
2023-02-11T01:09:13.745Z,35.10
2023-02-11T01:11:19.718Z,36.03
2023-02-11T01:13:23.241Z,34.60
2023-02-11T01:15:25.986Z,36.85
2023-02-11T01:17:28.387Z,36.20
2023-02-11T01:19:30.609Z,37.22
2023-02-11T01:21:33.041Z,35.72
2023-02-11T01:23:35.363Z,35.25
2023-02-11T01:25:37.804Z,33.58
2023-02-11T01:27:40.235Z,32.65
2023-02-11T01:29:42.673Z,34.85
2023-02-11T01:31:45.442Z,31.90
2023-02-11T01:33:49.471Z,33.65
2023-02-11T01:35:52.871Z,32.92
2023-02-11T01:37:55.510Z,33.28
2023-02-11T01:39:57.804Z,33.75
2023-02-11T01:42:01.705Z,34.58
2023-02-11T01:44:23.573Z,33.95
2023-02-11T01:46:36.886Z,28.70
2023-02-11T01:48:44.058Z,29.52
2023-02-11T01:50:49.728Z,27.67
2023-02-11T01:52:52.136Z,30.42
2023-02-11T01:55:18.094Z,31.38
2023-02-11T01:57:25.412Z,32.88
2023-02-11T02:03:42.954Z,32.38
2023-02-11T02:06:06.656Z,31.80
2023-02-11T02:08:17.718Z,33.08
2023-02-11T02:10:25.854Z,31.85
2023-02-11T02:12:28.305Z,33.20
2023-02-11T02:14:30.902Z,34.28
2023-02-11T02:16:37.460Z,33.75
2023-02-11T02:19:25.359Z,34.63
2023-02-11T02:21:55.501Z,28.95
2023-02-11T02:24:22.377Z,31.90
2023-02-11T02:26:54.237Z,29.42
2023-02-11T02:29:13.662Z,30.85
2023-02-11T02:33:34.172Z,26.75
2023-02-11T02:35:48.964Z,26.92
2023-02-11T02:38:10.884Z,27.05
2023-02-11T02:40:20.414Z,26.58
2023-02-11T02:42:23.929Z,26.08
2023-02-11T02:44:26.522Z,27.17
2023-02-11T02:46:32.957Z,26.85
2023-02-11T02:48:36.441Z,26.23
2023-02-11T02:50:38.848Z,26.10
2023-02-11T02:52:56.061Z,28.63
2023-02-11T02:55:07.428Z,27.13
2023-02-11T02:57:27.913Z,26.65
2023-02-11T03:00:00.989Z,26.85
2023-02-11T03:02:14.548Z,26.00
2023-02-11T03:04:34.106Z,25.23
2023-02-11T03:07:00.816Z,27.40
2023-02-11T03:09:15.128Z,26.45
2023-02-11T03:11:20.049Z,26.98
2023-02-11T03:13:27.933Z,26.17
2023-02-11T03:15:35.650Z,28.10
2023-02-11T03:17:41.849Z,27.73
2023-02-11T03:19:47.449Z,26.30
2023-02-11T03:21:52.327Z,25.83
2023-02-11T03:23:56.890Z,26.50
2023-02-11T03:26:10.048Z,27.60
2023-02-11T03:28:15.311Z,27.70
2023-02-11T03:30:26.297Z,25.60
2023-02-11T03:32:31.785Z,25.33
2023-02-11T03:34:34.103Z,24.75
2023-02-11T03:36:47.798Z,28.00
2023-02-11T03:38:56.858Z,28.02
2023-02-11T03:41:02.437Z,26.38
2023-02-11T03:43:18.270Z,26.83
2023-02-11T03:45:23.343Z,25.38
2023-02-11T03:47:29.849Z,26.52
2023-02-11T03:49:33.638Z,25.73
2023-02-11T03:51:37.191Z,27.30
2023-02-11T03:53:43.573Z,26.17
2023-02-11T03:55:49.667Z,24.70
2023-02-11T03:57:53.033Z,25.95
2023-02-11T03:59:59.694Z,26.45
2023-02-11T04:02:02.361Z,25.60
2023-02-11T04:04:04.814Z,24.70
2023-02-11T04:06:08.359Z,26.73
2023-02-11T04:08:10.828Z,28.15
2023-02-11T04:10:13.266Z,26.00
2023-02-11T04:12:15.803Z,24.73
2023-02-11T04:14:18.128Z,26.48
2023-02-11T04:16:21.216Z,24.88
2023-02-11T04:18:23.484Z,27.25
2023-02-11T04:20:25.805Z,30.10
2023-02-11T04:22:28.115Z,27.95
2023-02-11T04:24:30.563Z,26.55
2023-02-11T04:26:33.784Z,26.50
2023-02-11T04:28:36.879Z,26.58
2023-02-11T04:30:39.237Z,29.08
2023-02-11T04:32:42.131Z,28.55
2023-02-11T04:34:44.414Z,23.15
2023-02-11T04:36:48.225Z,25.23
2023-02-11T04:38:50.504Z,24.52
2023-02-11T04:40:52.905Z,20.48
2023-02-11T04:42:55.245Z,24.55
2023-02-11T04:44:57.472Z,24.15
2023-02-11T04:46:59.723Z,19.52
2023-02-11T04:49:01.922Z,20.55
2023-02-11T04:51:04.295Z,21.50
2023-02-11T04:53:07.284Z,21.67
2023-02-11T04:55:09.812Z,23.02
2023-02-11T04:57:12.066Z,27.55
2023-02-11T04:59:14.454Z,28.42
2023-02-11T05:01:17.296Z,26.55
2023-02-11T05:03:19.628Z,23.65
2023-02-11T05:05:22.189Z,28.65
2023-02-11T05:07:24.709Z,27.00
2023-02-11T05:09:26.939Z,25.92
2023-02-11T05:11:29.242Z,25.42
2023-02-11T05:13:31.735Z,28.77
2023-02-11T05:15:33.945Z,30.08
2023-02-11T05:17:36.986Z,27.13
2023-02-11T05:19:39.471Z,25.15
2023-02-11T05:21:56.591Z,26.50
2023-02-11T05:24:02.929Z,20.75
2023-02-11T05:26:05.750Z,29.05
2023-02-11T05:28:08.103Z,25.75
2023-02-11T05:30:11.476Z,29.30
2023-02-11T05:32:13.778Z,27.88
2023-02-11T05:34:16.287Z,30.13
2023-02-11T05:36:18.882Z,28.95
2023-02-11T05:38:21.470Z,27.52
2023-02-11T05:40:24.643Z,25.50
2023-02-11T05:42:27.313Z,26.80
2023-02-11T05:44:29.740Z,27.23
2023-02-11T05:46:32.204Z,25.67
2023-02-11T05:48:35.032Z,26.80
2023-02-11T05:50:37.562Z,28.02
2023-02-11T05:52:40.015Z,29.98
2023-02-11T05:54:42.555Z,26.65
2023-02-11T05:56:45.152Z,22.33
2023-02-11T05:58:47.694Z,21.90
2023-02-11T06:00:49.877Z,25.55
2023-02-11T06:02:52.444Z,28.27
2023-02-11T06:04:54.672Z,27.33
2023-02-11T06:06:57.203Z,28.15
2023-02-11T06:08:59.587Z,30.40
2023-02-11T06:11:02.229Z,31.30
2023-02-11T06:13:04.894Z,29.75
2023-02-11T06:15:07.963Z,32.40
2023-02-11T06:17:10.154Z,31.00
2023-02-11T06:19:13.348Z,31.88
2023-02-11T06:21:15.879Z,29.52
2023-02-11T06:23:18.767Z,28.10
2023-02-11T06:25:21.199Z,23.63
2023-02-11T06:27:23.861Z,24.27
2023-02-11T06:29:26.472Z,22.25
2023-02-11T06:31:29.349Z,25.80
2023-02-11T06:33:33.188Z,25.27
2023-02-11T06:35:38.213Z,24.88
2023-02-11T06:37:41.425Z,24.67
2023-02-11T06:39:45.455Z,29.48
2023-02-11T06:41:47.819Z,23.65
2023-02-11T06:43:50.707Z,24.88
2023-02-11T06:45:56.466Z,22.33
2023-02-11T06:47:58.904Z,24.33
2023-02-11T06:50:01.099Z,27.88
2023-02-11T06:52:03.925Z,27.63
2023-02-11T06:54:07.094Z,29.02
2023-02-11T06:56:13.454Z,26.27
2023-02-11T06:58:16.110Z,28.05
2023-02-11T07:00:18.683Z,29.50
2023-02-11T07:02:21.352Z,25.40
2023-02-11T07:04:23.824Z,30.90
2023-02-11T07:06:28.266Z,25.70
2023-02-11T07:08:30.830Z,21.58
2023-02-11T07:10:34.394Z,27.45
2023-02-11T07:12:37.038Z,27.13
2023-02-11T07:14:40.041Z,29.73
2023-02-11T07:16:42.386Z,29.63
2023-02-11T07:18:45.845Z,30.20
2023-02-11T07:20:48.637Z,30.90
2023-02-11T07:22:51.210Z,29.88
2023-02-11T07:24:53.585Z,30.83
2023-02-11T07:26:56.257Z,31.60
2023-02-11T07:28:58.779Z,33.33
2023-02-11T07:31:07.890Z,36.33
2023-02-11T07:33:10.891Z,35.60
2023-02-11T07:35:13.565Z,32.80
2023-02-11T07:37:15.888Z,33.60
2023-02-11T07:39:18.495Z,29.02
2023-02-11T07:41:23.299Z,28.52
2023-02-11T07:43:25.902Z,29.20
2023-02-11T07:45:28.110Z,29.20
2023-02-11T07:47:30.853Z,27.92
2023-02-11T07:49:33.271Z,29.92
2023-02-11T07:51:35.560Z,27.75
2023-02-11T07:53:39.023Z,27.00
2023-02-11T07:55:42.800Z,25.70
2023-02-11T07:57:45.638Z,25.08
2023-02-11T07:59:48.031Z,25.02
2023-02-11T08:01:51.770Z,21.55
2023-02-11T08:03:58.917Z,24.55
2023-02-11T08:06:12.243Z,21.75
2023-02-11T08:10:16.854Z,22.02
2023-02-11T08:12:19.340Z,22.23
2023-02-11T08:14:21.554Z,21.33
2023-02-11T08:16:27.779Z,20.52
2023-02-11T08:18:31.278Z,20.13
2023-02-11T08:20:34.107Z,20.33
2023-02-11T08:22:36.316Z,19.80
2023-02-11T08:24:38.826Z,19.17
2023-02-11T08:26:41.334Z,19.10
2023-02-11T08:28:45.951Z,20.02
2023-02-11T08:30:49.214Z,20.60
2023-02-11T08:32:52.696Z,22.98
2023-02-11T08:34:55.182Z,21.88
2023-02-11T08:36:58.247Z,20.83
2023-02-11T08:39:20.648Z,20.58
2023-02-11T08:41:23.275Z,19.60
2023-02-11T08:43:25.937Z,19.38
2023-02-11T08:45:28.919Z,21.23
2023-02-11T08:47:32.199Z,20.70
2023-02-11T08:49:34.895Z,20.85
2023-02-11T08:51:37.283Z,19.50
2023-02-11T08:53:40.117Z,18.55
2023-02-11T08:55:49.356Z,18.50
2023-02-11T08:57:51.921Z,18.70
2023-02-11T08:59:54.191Z,20.05
2023-02-11T09:01:56.779Z,19.75
2023-02-11T09:03:59.953Z,18.98
2023-02-11T09:06:05.968Z,19.90
2023-02-11T09:08:08.324Z,18.13
2023-02-11T09:10:11.769Z,19.40
2023-02-11T09:12:14.408Z,19.20
2023-02-11T09:14:22.088Z,20.55
2023-02-11T09:16:28.712Z,20.58
2023-02-11T09:18:31.757Z,21.88
2023-02-11T09:20:34.704Z,20.10
2023-02-11T09:22:37.090Z,21.58
2023-02-11T09:24:39.532Z,23.17
2023-02-11T09:26:43.743Z,23.75
2023-02-11T09:28:47.076Z,25.15
2023-02-11T09:30:50.073Z,22.40
2023-02-11T09:32:52.648Z,21.65
2023-02-11T09:34:55.024Z,22.30
2023-02-11T09:36:57.830Z,24.33
2023-02-11T09:39:02.502Z,25.48
2023-02-11T09:41:08.030Z,21.23
2023-02-11T09:43:33.974Z,25.60
2023-02-11T09:45:36.498Z,24.77
2023-02-11T09:48:04.419Z,27.05
2023-02-11T09:50:36.224Z,25.05
2023-02-11T09:53:05.465Z,22.63
2023-02-11T09:55:25.345Z,21.60
2023-02-11T09:57:36.608Z,22.85
2023-02-11T09:59:40.637Z,23.88
2023-02-11T10:01:51.302Z,21.63
2023-02-11T10:04:31.161Z,20.52
2023-02-11T10:06:52.693Z,21.65
2023-02-11T10:09:16.704Z,18.92
2023-02-11T10:11:32.108Z,19.42
2023-02-11T10:13:52.972Z,19.73
2023-02-11T10:16:22.546Z,19.48
2023-02-11T10:18:46.083Z,23.23
2023-02-11T10:21:20.987Z,21.20
2023-02-11T10:23:27.184Z,19.27
2023-02-11T10:25:45.232Z,18.52
2023-02-11T10:27:49.134Z,20.88
2023-02-11T10:30:02.999Z,19.67
2023-02-11T10:32:25.371Z,18.80
2023-02-11T10:34:27.623Z,20.35
2023-02-11T10:36:34.260Z,17.15
2023-02-11T10:38:37.250Z,18.33
2023-02-11T10:40:39.707Z,19.13
2023-02-11T10:42:47.409Z,20.58
2023-02-11T10:45:01.339Z,18.65
2023-02-11T10:47:12.508Z,20.60
2023-02-11T10:49:40.036Z,17.85
2023-02-11T10:51:42.583Z,16.73
2023-02-11T10:53:46.677Z,18.60
2023-02-11T10:55:54.874Z,18.42
2023-02-11T10:58:01.387Z,16.50
2023-02-11T11:00:18.922Z,17.92
2023-02-11T11:02:34.631Z,19.88
2023-02-11T11:04:42.986Z,18.25
2023-02-11T11:06:45.372Z,19.95
2023-02-11T11:08:50.653Z,21.25
2023-02-11T11:11:14.584Z,20.67
2023-02-11T11:13:32.756Z,20.73
2023-02-11T11:15:34.914Z,19.02
2023-02-11T11:17:38.656Z,19.45
2023-02-11T11:19:41.063Z,17.95
2023-02-11T11:21:52.429Z,23.45
2023-02-11T11:24:04.338Z,24.70
2023-02-11T11:26:13.056Z,20.60
2023-02-11T11:28:25.631Z,20.27
2023-02-11T11:30:35.181Z,22.27
2023-02-11T11:32:38.174Z,20.60
2023-02-11T11:34:49.799Z,22.00
2023-02-11T11:36:56.646Z,24.35
2023-02-11T11:39:03.669Z,20.73
2023-02-11T11:41:17.808Z,19.80
2023-02-11T11:43:23.350Z,19.80
2023-02-11T11:45:27.451Z,18.27
2023-02-11T11:47:41.252Z,18.00
2023-02-11T11:49:52.973Z,19.10
2023-02-11T11:52:27.243Z,21.90
2023-02-11T11:54:31.669Z,18.33
2023-02-11T11:56:38.414Z,22.67
2023-02-11T11:58:41.133Z,18.27
2023-02-11T12:00:56.251Z,18.20
2023-02-11T12:03:26.180Z,20.95
2023-02-11T12:05:38.624Z,18.95
2023-02-11T12:07:56.243Z,21.83
2023-02-11T12:10:36.113Z,17.75
2023-02-11T12:12:41.679Z,20.80
2023-02-11T12:15:08.011Z,19.65
2023-02-11T12:17:20.130Z,19.27
2023-02-11T12:19:57.727Z,15.57
2023-02-11T12:22:19.498Z,17.48
2023-02-11T12:24:24.988Z,14.30
2023-02-11T12:26:38.811Z,16.10
2023-02-11T12:29:20.677Z,16.58
2023-02-11T12:31:33.747Z,16.58
2023-02-11T12:33:54.741Z,14.63
2023-02-11T12:36:06.250Z,16.52
2023-02-11T12:38:19.220Z,15.75
2023-02-11T12:40:35.156Z,17.63
2023-02-11T12:43:15.413Z,16.65
2023-02-11T12:46:05.214Z,14.90
2023-02-11T12:48:38.324Z,15.40
2023-02-11T12:51:04.125Z,16.85
2023-02-11T12:53:28.293Z,16.63
2023-02-11T12:55:40.248Z,17.20
2023-02-11T12:57:46.792Z,16.02
2023-02-11T12:59:59.746Z,15.48
2023-02-11T13:02:12.789Z,14.75
2023-02-11T13:04:35.364Z,16.83
2023-02-11T13:06:42.587Z,14.93
2023-02-11T13:08:49.256Z,15.40
2023-02-11T13:10:55.822Z,16.45
2023-02-11T13:13:17.318Z,14.45
2023-02-11T13:15:20.383Z,13.50
2023-02-11T13:17:57.952Z,15.55
2023-02-11T13:20:15.288Z,14.55
2023-02-11T13:22:27.594Z,14.07
2023-02-11T13:24:53.568Z,13.70
2023-02-11T13:27:01.993Z,13.98
2023-02-11T13:29:19.766Z,17.52
2023-02-11T13:31:27.026Z,17.58
2023-02-11T13:33:37.988Z,16.15
2023-02-11T13:35:45.512Z,15.52
2023-02-11T13:37:48.393Z,16.02
2023-02-11T13:40:27.339Z,17.10
2023-02-11T13:42:31.549Z,17.65
2023-02-11T13:44:35.210Z,19.92
2023-02-11T13:47:00.016Z,18.77
2023-02-11T13:49:02.571Z,20.13
2023-02-11T13:51:11.014Z,18.77
2023-02-11T13:53:15.987Z,21.92
2023-02-11T13:55:24.543Z,18.38
2023-02-11T13:57:36.183Z,17.05
2023-02-11T13:59:38.829Z,16.38
2023-02-11T14:02:19.807Z,14.23
2023-02-11T14:04:44.139Z,14.23
2023-02-11T14:07:46.458Z,17.38
2023-02-11T14:09:53.770Z,16.35
2023-02-11T14:12:33.996Z,16.58
2023-02-11T14:15:03.285Z,17.98
2023-02-11T14:17:09.507Z,16.77
2023-02-11T14:19:11.796Z,14.95
2023-02-11T14:21:30.877Z,15.75
2023-02-11T14:25:39.237Z,17.38
2023-02-11T14:27:44.432Z,19.25
2023-02-11T14:30:01.963Z,16.20
2023-02-11T14:32:10.154Z,15.88
2023-02-11T14:34:40.772Z,13.70
2023-02-11T14:37:09.548Z,16.45
2023-02-11T14:39:40.713Z,16.30
2023-02-11T14:41:46.649Z,17.10
2023-02-11T14:44:15.222Z,17.00
2023-02-11T14:46:20.203Z,14.63
2023-02-11T14:48:31.427Z,15.00
2023-02-11T14:50:51.517Z,17.92
2023-02-11T14:52:55.464Z,15.35
2023-02-11T14:55:20.912Z,14.77
2023-02-11T14:57:23.947Z,14.85
2023-02-11T14:59:26.798Z,14.35
2023-02-11T15:01:34.630Z,13.43
2023-02-11T15:03:40.234Z,12.63
2023-02-11T15:05:43.491Z,12.20
2023-02-11T15:07:52.441Z,13.18
2023-02-11T15:09:54.898Z,12.70
2023-02-11T15:11:58.891Z,13.13
2023-02-11T15:14:11.440Z,13.73
2023-02-11T15:16:18.835Z,15.27
2023-02-11T15:18:25.208Z,19.60
2023-02-11T15:20:32.410Z,16.05
2023-02-11T15:24:41.269Z,12.98
2023-02-11T15:26:43.909Z,13.32
2023-02-11T15:28:52.905Z,14.23
2023-02-11T15:31:04.661Z,12.82
2023-02-11T15:33:21.417Z,12.90
2023-02-11T15:35:24.870Z,12.82
2023-02-11T15:37:33.117Z,13.35
2023-02-11T15:39:44.107Z,12.55
2023-02-11T15:41:46.519Z,12.18
2023-02-11T15:43:54.759Z,11.13
2023-02-11T15:46:02.468Z,13.02
2023-02-11T15:48:19.123Z,11.80
2023-02-11T15:50:25.186Z,13.30
2023-02-11T15:52:28.891Z,11.98
2023-02-11T15:54:34.897Z,13.88
2023-02-11T15:56:43.662Z,12.98
2023-02-11T15:58:49.770Z,13.27
2023-02-11T16:01:00.118Z,12.95
2023-02-11T16:03:03.445Z,13.65
2023-02-11T16:05:09.388Z,14.30
2023-02-11T16:07:43.532Z,15.00
2023-02-11T16:09:46.343Z,13.82
2023-02-11T16:11:48.609Z,15.02
2023-02-11T16:13:51.014Z,16.88
2023-02-11T16:16:02.693Z,16.15
2023-02-11T16:18:16.155Z,16.33
2023-02-11T16:20:21.658Z,15.35
2023-02-11T16:22:35.786Z,15.82
2023-02-11T16:24:39.744Z,15.73
2023-02-11T16:26:46.866Z,15.95
2023-02-11T16:28:49.684Z,17.23
2023-02-11T16:30:55.881Z,15.52
2023-02-11T16:32:58.315Z,16.42
2023-02-11T16:35:02.526Z,15.98
2023-02-11T16:37:06.186Z,16.05
2023-02-11T16:39:09.507Z,15.93
2023-02-11T16:41:13.054Z,15.60
2023-02-11T16:43:20.071Z,16.33
2023-02-11T16:45:22.497Z,14.85
2023-02-11T16:47:27.929Z,16.27
2023-02-11T16:49:40.887Z,16.10
2023-02-11T16:51:44.817Z,16.90
2023-02-11T16:53:47.193Z,15.15
2023-02-11T16:55:50.130Z,16.17
2023-02-11T16:57:52.993Z,14.65
2023-02-11T16:59:55.357Z,15.10
2023-02-11T17:01:58.467Z,14.25
2023-02-11T17:04:01.389Z,14.13
2023-02-11T17:06:06.216Z,13.07
2023-02-11T17:08:09.947Z,13.98
2023-02-11T17:10:21.686Z,13.25
2023-02-11T17:12:28.182Z,13.18
2023-02-11T17:14:30.634Z,12.40
2023-02-11T17:16:33.363Z,12.40
2023-02-11T17:18:37.678Z,13.73
2023-02-11T17:20:40.827Z,11.43
2023-02-11T17:22:43.957Z,11.52
2023-02-11T17:24:46.509Z,12.43
2023-02-11T17:26:50.156Z,13.73
2023-02-11T17:28:53.712Z,13.93
2023-02-11T17:30:56.278Z,15.15
2023-02-11T17:32:58.887Z,15.77
2023-02-11T17:35:01.690Z,15.88
2023-02-11T17:37:09.421Z,14.95
2023-02-11T17:39:12.206Z,13.25
2023-02-11T17:41:14.919Z,12.30
2023-02-11T17:43:17.197Z,13.68
2023-02-11T17:45:22.172Z,14.32
2023-02-11T17:47:25.681Z,15.88
2023-02-11T17:49:28.472Z,15.73
2023-02-11T17:51:36.817Z,15.07
2023-02-11T17:53:39.387Z,13.68
2023-02-11T17:55:42.201Z,13.68
2023-02-11T17:57:44.670Z,13.27
2023-02-11T17:59:47.461Z,13.77
2023-02-11T18:01:49.937Z,14.38
2023-02-11T18:03:52.774Z,13.75
2023-02-11T18:06:00.877Z,14.02
2023-02-11T18:08:06.595Z,14.02
2023-02-11T18:10:10.033Z,13.05
2023-02-11T18:12:12.707Z,13.07
2023-02-11T18:14:15.037Z,11.15
2023-02-11T18:16:17.949Z,11.52
2023-02-11T18:18:20.390Z,11.93
2023-02-11T18:20:22.747Z,12.07
2023-02-11T18:22:26.294Z,12.13
2023-02-11T18:24:28.503Z,13.23
2023-02-11T18:26:31.280Z,11.98
2023-02-11T18:28:34.491Z,13.52
2023-02-11T18:30:36.919Z,13.52
2023-02-11T18:32:39.330Z,13.27
2023-02-11T18:34:42.268Z,12.27
2023-02-11T18:36:48.893Z,13.13
2023-02-11T18:38:53.005Z,13.40
2023-02-11T18:40:58.791Z,12.52
2023-02-11T18:43:01.511Z,13.60
2023-02-11T18:45:05.792Z,13.90
2023-02-11T18:47:08.378Z,12.85
2023-02-11T18:49:13.551Z,16.70
2023-02-11T18:51:20.817Z,20.75
2023-02-11T18:55:26.489Z,17.60
2023-02-11T18:57:29.244Z,18.30
2023-02-11T18:59:31.715Z,15.77
2023-02-11T19:01:34.710Z,14.90
2023-02-11T19:03:38.432Z,14.77
2023-02-11T19:05:49.608Z,12.05
2023-02-11T19:07:52.149Z,13.07
2023-02-11T19:09:54.768Z,14.18
2023-02-11T19:11:58.635Z,13.68
2023-02-11T19:14:02.757Z,11.98
2023-02-11T19:16:11.507Z,14.88
2023-02-11T19:18:16.319Z,15.75
2023-02-11T19:20:19.618Z,12.85
2023-02-11T19:22:22.327Z,12.15
2023-02-11T19:24:26.650Z,14.27
2023-02-11T19:26:30.348Z,14.95
2023-02-11T19:28:34.720Z,14.30
2023-02-11T19:30:37.546Z,14.20
2023-02-11T19:32:40.054Z,13.35
2023-02-11T19:34:42.725Z,13.10
2023-02-11T19:36:45.311Z,13.13
2023-02-11T19:38:47.954Z,13.43
2023-02-11T19:40:56.918Z,14.57
2023-02-11T19:42:59.547Z,13.45
2023-02-11T19:45:02.723Z,13.15
2023-02-11T19:47:07.221Z,12.75
2023-02-11T19:49:14.708Z,16.38
2023-02-11T19:51:18.617Z,16.98
2023-02-11T19:53:22.065Z,16.48
2023-02-11T19:55:24.688Z,14.15
2023-02-11T19:57:27.261Z,13.98
2023-02-11T19:59:29.704Z,12.18
2023-02-11T20:01:32.176Z,13.18
2023-02-11T20:03:35.701Z,12.75
2023-02-11T20:05:40.484Z,12.20
2023-02-11T20:07:42.815Z,11.02
2023-02-11T20:09:45.607Z,10.55
2023-02-11T20:11:48.022Z,10.38
2023-02-11T20:13:50.486Z,12.23
2023-02-11T20:15:53.335Z,11.98
2023-02-11T20:17:56.331Z,12.35
2023-02-11T20:19:58.963Z,11.85
2023-02-11T20:22:01.816Z,11.70
2023-02-11T20:24:04.680Z,12.60
2023-02-11T20:26:13.724Z,12.10
2023-02-11T20:28:16.632Z,13.50
2023-02-11T20:30:19.306Z,11.93
2023-02-11T20:32:21.889Z,12.48
2023-02-11T20:34:25.639Z,11.95
2023-02-11T20:36:32.496Z,12.65
2023-02-11T20:38:35.425Z,13.82
2023-02-11T20:40:38.772Z,12.50
2023-02-11T20:42:41.537Z,14.65
2023-02-11T20:44:44.529Z,11.20
2023-02-11T20:46:47.624Z,11.35
2023-02-11T20:48:52.312Z,11.75
2023-02-11T20:50:55.037Z,10.48
2023-02-11T20:52:57.749Z,12.52
2023-02-11T20:55:01.914Z,9.70
2023-02-11T20:57:04.673Z,11.15
2023-02-11T20:59:08.088Z,11.57
2023-02-11T21:01:31.963Z,11.20
2023-02-11T21:03:34.616Z,12.07
2023-02-11T21:05:37.120Z,10.93
2023-02-11T21:07:40.198Z,12.10
2023-02-11T21:09:42.746Z,10.68
2023-02-11T21:11:45.708Z,10.38
2023-02-11T21:13:49.016Z,10.60
2023-02-11T21:15:56.846Z,11.00
2023-02-11T21:18:00.335Z,11.05
2023-02-11T21:20:02.799Z,10.90
2023-02-11T21:22:05.445Z,12.25
2023-02-11T21:24:09.917Z,11.20
2023-02-11T21:26:13.021Z,11.52
2023-02-11T21:28:15.765Z,10.68
2023-02-11T21:30:18.888Z,12.38
2023-02-11T21:32:21.209Z,10.35
2023-02-11T21:34:23.935Z,10.23
2023-02-11T21:36:27.897Z,12.25
2023-02-11T21:38:31.414Z,12.98
2023-02-11T21:40:33.660Z,11.88
2023-02-11T21:42:36.560Z,12.20
2023-02-11T21:44:39.377Z,13.43
2023-02-11T21:46:42.683Z,11.48
2023-02-11T21:48:45.773Z,10.90
2023-02-11T21:50:48.195Z,10.52
2023-02-11T21:52:50.981Z,9.68
2023-02-11T21:54:53.461Z,10.57
2023-02-11T21:56:56.242Z,10.13
2023-02-11T21:58:59.652Z,10.57
2023-02-11T22:01:02.162Z,13.40
2023-02-11T22:03:05.055Z,13.07
2023-02-11T22:05:07.477Z,10.70
2023-02-11T22:07:09.996Z,11.52
2023-02-11T22:09:12.702Z,11.73
2023-02-11T22:11:15.554Z,11.68
2023-02-11T22:13:18.078Z,9.75
2023-02-11T22:15:20.894Z,12.55
2023-02-11T22:17:24.109Z,12.13
2023-02-11T22:19:26.759Z,11.35
2023-02-11T22:21:29.176Z,11.25
2023-02-11T22:23:32.119Z,12.82
2023-02-11T22:25:37.046Z,12.75
2023-02-11T22:27:39.934Z,11.93
2023-02-11T22:29:43.387Z,11.30
2023-02-11T22:31:46.180Z,12.00
2023-02-11T22:33:50.041Z,10.85
2023-02-11T22:36:00.499Z,11.52
2023-02-11T22:38:03.074Z,10.63
2023-02-11T22:40:06.521Z,10.15
2023-02-11T22:42:09.443Z,10.05
2023-02-11T22:44:13.014Z,11.63
2023-02-11T22:46:18.574Z,10.18
2023-02-11T22:48:23.110Z,11.00
2023-02-11T22:50:26.436Z,9.90
2023-02-11T22:52:29.145Z,11.55
2023-02-11T22:54:31.703Z,10.57
2023-02-11T22:56:35.483Z,10.75
2023-02-11T22:58:38.115Z,9.15
2023-02-11T23:00:42.087Z,11.10
2023-02-11T23:02:44.687Z,11.48
2023-02-11T23:04:49.852Z,10.90
2023-02-11T23:06:52.776Z,9.88
2023-02-11T23:08:55.749Z,10.35
2023-02-11T23:11:23.364Z,9.73
2023-02-11T23:13:26.135Z,10.30
2023-02-11T23:15:29.157Z,9.38
2023-02-11T23:17:32.015Z,10.52
2023-02-11T23:19:34.378Z,9.20
2023-02-11T23:21:39.767Z,9.32
2023-02-11T23:23:43.434Z,9.30
2023-02-11T23:25:47.940Z,11.52
2023-02-11T23:27:50.597Z,9.35
2023-02-11T23:29:56.876Z,10.13
2023-02-11T23:31:59.404Z,10.77
2023-02-11T23:34:08.454Z,9.27
2023-02-11T23:36:11.650Z,12.15
2023-02-11T23:38:13.884Z,10.18
2023-02-11T23:40:16.417Z,8.15
2023-02-11T23:42:18.872Z,10.10
2023-02-11T23:44:21.973Z,11.10
2023-02-11T23:46:26.171Z,9.90
2023-02-11T23:48:29.056Z,9.38
2023-02-11T23:50:33.083Z,10.27
2023-02-11T23:52:35.679Z,9.65
2023-02-11T23:54:38.030Z,9.18
2023-02-11T23:56:42.664Z,9.80
2023-02-11T23:58:47.195Z,9.93
